createdAt,value
2023-05-12T00:00:11.639Z,44.79
2023-05-12T00:03:04.754Z,44.97
2023-05-12T00:05:33.551Z,44.73
2023-05-12T00:08:02.481Z,45.04
2023-05-12T00:10:32.681Z,44.99
2023-05-12T00:13:01.689Z,45.01
2023-05-12T00:15:30.558Z,45.20
2023-05-12T00:17:59.546Z,45.33
2023-05-12T00:20:28.230Z,45.40
2023-05-12T00:22:57.242Z,45.56
2023-05-12T00:25:25.878Z,45.27
2023-05-12T00:27:56.230Z,45.57
2023-05-12T00:30:25.082Z,45.51
2023-05-12T00:32:54.017Z,45.89
2023-05-12T00:35:22.906Z,45.73
2023-05-12T00:37:51.915Z,45.80
2023-05-12T00:40:21.147Z,45.68
2023-05-12T00:42:50.778Z,46.30
2023-05-12T00:45:21.922Z,45.57
2023-05-12T00:47:53.531Z,46.22
2023-05-12T00:50:22.870Z,46.07
2023-05-12T00:52:53.129Z,45.71
2023-05-12T00:55:22.105Z,45.83
2023-05-12T00:57:51.645Z,45.79
2023-05-12T01:00:22.557Z,46.21
2023-05-12T01:02:51.974Z,46.03
2023-05-12T01:05:20.924Z,46.28
2023-05-12T01:07:51.107Z,46.15
2023-05-12T01:10:21.999Z,46.06
2023-05-12T01:12:51.186Z,46.18
2023-05-12T01:15:22.526Z,46.27
2023-05-12T01:18:00.200Z,46.27
2023-05-12T01:20:31.544Z,46.29
2023-05-12T01:23:01.660Z,46.48
2023-05-12T01:25:35.410Z,46.53
2023-05-12T01:28:07.682Z,46.21
2023-05-12T01:30:42.809Z,46.41
2023-05-12T01:33:14.262Z,46.56
2023-05-12T01:35:43.329Z,46.80
2023-05-12T01:38:12.650Z,46.82
2023-05-12T01:40:42.884Z,46.54
2023-05-12T01:43:13.255Z,46.94
2023-05-12T01:45:41.946Z,47.12
2023-05-12T01:48:11.687Z,46.78
2023-05-12T01:50:40.328Z,46.66
2023-05-12T01:53:13.635Z,46.88
2023-05-12T01:55:42.377Z,47.16
2023-05-12T01:58:12.843Z,46.89
2023-05-12T02:00:41.532Z,47.24
2023-05-12T02:03:16.636Z,46.94
2023-05-12T02:05:45.561Z,47.06
2023-05-12T02:08:14.525Z,47.13
2023-05-12T02:10:43.441Z,47.16
2023-05-12T02:13:14.057Z,47.29
2023-05-12T02:15:42.944Z,47.32
2023-05-12T02:18:11.979Z,47.49
2023-05-12T02:20:41.325Z,47.48
2023-05-12T02:23:11.472Z,47.44
2023-05-12T02:25:40.220Z,47.87
2023-05-12T02:28:11.001Z,47.90
2023-05-12T02:30:47.029Z,47.70
2023-05-12T02:33:16.214Z,48.20
2023-05-12T02:35:45.735Z,48.73
2023-05-12T02:38:15.148Z,48.67
2023-05-12T02:40:44.303Z,48.71
2023-05-12T02:43:13.337Z,48.58
2023-05-12T02:45:43.539Z,48.80
2023-05-12T02:48:12.825Z,48.82
2023-05-12T02:50:41.855Z,48.74
2023-05-12T02:53:10.889Z,48.65
2023-05-12T02:55:40.262Z,48.42
2023-05-12T02:58:10.237Z,48.85
2023-05-12T03:00:39.026Z,48.25
2023-05-12T03:03:09.556Z,48.49
2023-05-12T03:05:38.371Z,48.64
2023-05-12T03:08:07.442Z,48.92
2023-05-12T03:10:36.495Z,48.98
2023-05-12T03:13:05.507Z,49.19
2023-05-12T03:15:34.151Z,48.84
2023-05-12T03:18:03.275Z,49.06
2023-05-12T03:20:33.425Z,49.16
2023-05-12T03:23:02.420Z,49.00
2023-05-12T03:25:31.280Z,48.78
2023-05-12T03:28:00.270Z,48.59
2023-05-12T03:30:28.986Z,49.19
2023-05-12T03:32:57.975Z,48.58
2023-05-12T03:35:26.993Z,48.66
2023-05-12T03:37:57.556Z,48.90
2023-05-12T03:40:26.843Z,49.22
2023-05-12T03:42:55.806Z,50.32
2023-05-12T03:45:24.475Z,49.13
2023-05-12T03:47:53.475Z,49.86
2023-05-12T03:50:22.455Z,48.56
2023-05-12T03:52:55.954Z,48.53
2023-05-12T03:55:26.278Z,48.66
2023-05-12T03:57:55.261Z,49.06
2023-05-12T04:00:24.080Z,49.50
2023-05-12T04:02:53.063Z,48.72
2023-05-12T04:05:22.009Z,48.89
2023-05-12T04:07:51.209Z,48.94
2023-05-12T04:10:20.784Z,49.14
2023-05-12T04:12:51.304Z,47.97
2023-05-12T04:15:21.210Z,48.84
2023-05-12T04:17:51.169Z,47.89
2023-05-12T04:20:21.572Z,47.96
2023-05-12T04:22:51.522Z,48.36
2023-05-12T04:25:20.374Z,48.34
2023-05-12T04:27:50.689Z,48.59
2023-05-12T04:30:19.803Z,48.30
2023-05-12T04:32:49.573Z,47.96
2023-05-12T04:35:18.773Z,47.74
2023-05-12T04:37:47.699Z,47.05
2023-05-12T04:40:16.744Z,47.10
2023-05-12T04:42:45.672Z,47.24
2023-05-12T04:45:17.616Z,47.27
2023-05-12T04:47:46.959Z,46.49
2023-05-12T04:50:15.798Z,46.77
2023-05-12T04:52:44.666Z,46.75
2023-05-12T04:55:14.146Z,46.21
2023-05-12T04:57:43.637Z,46.00
2023-05-12T05:00:15.037Z,46.17
2023-05-12T05:02:47.454Z,46.03
2023-05-12T05:05:16.811Z,45.63
2023-05-12T05:07:45.809Z,45.39
2023-05-12T05:10:15.413Z,44.80
2023-05-12T05:12:46.305Z,45.17
2023-05-12T05:15:15.106Z,45.04
2023-05-12T05:17:49.197Z,44.47
2023-05-12T05:20:20.022Z,44.32
2023-05-12T05:22:49.564Z,44.57
2023-05-12T05:25:19.293Z,44.11
2023-05-12T05:27:48.316Z,44.57
2023-05-12T05:30:17.452Z,43.13
2023-05-12T05:32:47.459Z,42.43
2023-05-12T05:35:16.699Z,42.37
2023-05-12T05:37:53.764Z,41.82
2023-05-12T05:40:23.353Z,41.93
2023-05-12T05:42:52.832Z,40.74
2023-05-12T05:45:21.772Z,39.93
2023-05-12T05:47:53.258Z,40.38
2023-05-12T05:50:23.235Z,40.09
2023-05-12T05:52:55.311Z,39.51
2023-05-12T05:55:25.149Z,39.65
2023-05-12T05:57:54.438Z,38.70
2023-05-12T06:00:24.130Z,38.93
2023-05-12T06:02:54.372Z,38.37
2023-05-12T06:05:24.186Z,38.73
2023-05-12T06:07:54.724Z,37.51
2023-05-12T06:10:23.718Z,37.40
2023-05-12T06:12:52.804Z,37.41
2023-05-12T06:15:23.275Z,37.06
2023-05-12T06:17:52.395Z,36.57
2023-05-12T06:20:23.285Z,36.38
2023-05-12T06:22:53.221Z,37.10
2023-05-12T06:25:23.295Z,36.48
2023-05-12T06:27:53.256Z,36.06
2023-05-12T06:30:22.052Z,36.15
2023-05-12T06:32:51.046Z,36.05
2023-05-12T06:35:19.947Z,35.17
2023-05-12T06:37:50.866Z,35.59
2023-05-12T06:40:19.775Z,34.83
2023-05-12T06:42:50.468Z,34.81
2023-05-12T06:45:23.657Z,34.17
2023-05-12T06:47:53.852Z,34.11
2023-05-12T06:50:22.539Z,34.28
2023-05-12T06:52:54.559Z,33.86
2023-05-12T06:55:24.148Z,34.07
2023-05-12T06:57:56.167Z,33.74
2023-05-12T07:00:25.992Z,33.78
2023-05-12T07:02:55.178Z,33.94
2023-05-12T07:05:24.390Z,33.81
2023-05-12T07:07:53.699Z,33.02
2023-05-12T07:10:22.426Z,32.65
2023-05-12T07:12:51.419Z,33.06
2023-05-12T07:15:21.825Z,33.91
2023-05-12T07:17:51.148Z,32.96
2023-05-12T07:20:19.829Z,32.21
2023-05-12T07:22:48.959Z,32.34
2023-05-12T07:25:18.111Z,33.22
2023-05-12T07:27:47.340Z,33.05
2023-05-12T07:30:16.450Z,33.45
2023-05-12T07:32:47.076Z,33.01
2023-05-12T07:35:15.920Z,33.14
2023-05-12T07:37:44.925Z,32.88
2023-05-12T07:40:13.958Z,33.09
2023-05-12T07:42:43.205Z,32.67
2023-05-12T07:45:12.495Z,32.49
2023-05-12T07:47:42.066Z,32.30
2023-05-12T07:50:12.181Z,33.37
2023-05-12T07:52:49.209Z,32.14
2023-05-12T07:55:18.882Z,31.98
2023-05-12T07:57:48.557Z,31.60
2023-05-12T08:00:18.249Z,31.70
2023-05-12T08:02:47.485Z,31.44
2023-05-12T08:05:18.182Z,31.19
2023-05-12T08:07:47.333Z,30.21
2023-05-12T08:10:16.011Z,29.64
2023-05-12T08:12:44.991Z,30.22
2023-05-12T08:15:13.758Z,30.77
2023-05-12T08:17:42.779Z,29.76
2023-05-12T08:20:13.144Z,30.19
2023-05-12T08:22:44.148Z,28.19
2023-05-12T08:25:12.969Z,28.84
2023-05-12T08:27:42.016Z,27.33
2023-05-12T08:30:12.351Z,26.70
2023-05-12T08:32:41.502Z,27.79
2023-05-12T08:35:10.362Z,27.97
2023-05-12T08:37:39.450Z,28.77
2023-05-12T08:40:19.427Z,27.83
2023-05-12T08:43:02.370Z,28.30
2023-05-12T08:45:34.208Z,29.46
2023-05-12T08:48:06.755Z,28.69
2023-05-12T08:50:39.275Z,28.33
2023-05-12T08:53:12.656Z,28.04
2023-05-12T08:55:57.107Z,28.48
2023-05-12T08:58:41.084Z,28.33
2023-05-12T09:01:14.903Z,28.25
2023-05-12T09:03:44.148Z,27.00
2023-05-12T09:06:14.421Z,26.96
2023-05-12T09:08:44.970Z,27.28
2023-05-12T09:11:15.587Z,26.54
2023-05-12T09:13:55.855Z,26.23
2023-05-12T09:16:26.828Z,26.31
2023-05-12T09:18:58.849Z,26.12
2023-05-12T09:21:28.809Z,25.82
2023-05-12T09:24:00.032Z,25.82
2023-05-12T09:26:30.574Z,26.24
2023-05-12T09:29:08.578Z,25.81
2023-05-12T09:31:38.051Z,25.21
2023-05-12T09:34:09.996Z,25.46
2023-05-12T09:36:38.755Z,24.75
2023-05-12T09:39:09.998Z,23.73
2023-05-12T09:41:41.890Z,23.51
2023-05-12T09:44:16.407Z,23.96
2023-05-12T09:46:45.815Z,23.52
2023-05-12T09:49:19.159Z,23.59
2023-05-12T09:51:52.500Z,23.42
2023-05-12T09:54:28.418Z,23.52
2023-05-12T09:57:01.523Z,23.30
2023-05-12T09:59:33.542Z,23.24
2023-05-12T10:02:06.537Z,23.53
2023-05-12T10:04:45.743Z,22.62
2023-05-12T10:07:17.473Z,22.27
2023-05-12T10:09:49.962Z,22.68
2023-05-12T10:12:20.390Z,22.26
2023-05-12T10:14:50.327Z,22.24
2023-05-12T10:17:21.204Z,21.47
2023-05-12T10:19:52.709Z,21.01
2023-05-12T10:22:22.832Z,20.37
2023-05-12T10:24:53.064Z,20.42
2023-05-12T10:27:26.025Z,20.62
2023-05-12T10:29:56.296Z,20.26
2023-05-12T10:32:25.161Z,19.80
2023-05-12T10:34:55.032Z,19.88
2023-05-12T10:37:24.985Z,20.24
2023-05-12T10:39:54.367Z,20.06
2023-05-12T10:42:26.473Z,20.68
2023-05-12T10:44:57.402Z,21.36
2023-05-12T10:47:27.806Z,21.16
2023-05-12T10:49:59.507Z,21.55
2023-05-12T10:52:28.379Z,21.85
2023-05-12T10:55:03.249Z,21.73
2023-05-12T10:57:34.813Z,20.76
2023-05-12T11:00:05.189Z,20.89
2023-05-12T11:02:37.214Z,21.12
2023-05-12T11:05:13.512Z,21.52
2023-05-12T11:07:50.032Z,21.30
2023-05-12T11:10:21.172Z,21.03
2023-05-12T11:12:54.188Z,21.51
2023-05-12T11:15:24.039Z,21.22
2023-05-12T11:17:53.240Z,21.26
2023-05-12T11:20:28.071Z,20.91
2023-05-12T11:22:58.494Z,21.60
2023-05-12T11:25:29.206Z,21.23
2023-05-12T11:27:59.636Z,21.92
2023-05-12T11:30:28.710Z,20.90
2023-05-12T11:33:03.844Z,21.84
2023-05-12T11:35:33.371Z,20.84
2023-05-12T11:38:03.034Z,21.06
2023-05-12T11:40:32.142Z,20.43
2023-05-12T11:43:11.620Z,19.85
2023-05-12T11:45:40.602Z,20.12
2023-05-12T11:48:12.636Z,21.16
2023-05-12T11:50:44.402Z,21.36
2023-05-12T11:53:15.740Z,20.07
2023-05-12T11:55:52.887Z,20.95
2023-05-12T11:58:26.708Z,21.00
2023-05-12T12:00:57.333Z,20.52
2023-05-12T12:03:26.986Z,20.79
2023-05-12T12:06:01.534Z,21.09
2023-05-12T12:08:31.071Z,21.41
2023-05-12T12:11:02.738Z,22.89
2023-05-12T12:13:33.710Z,23.05
2023-05-12T12:16:02.756Z,23.75
2023-05-12T12:18:31.470Z,23.10
2023-05-12T12:21:00.444Z,23.47
2023-05-12T12:23:33.327Z,23.54
2023-05-12T12:26:09.602Z,24.86
2023-05-12T12:28:39.737Z,23.79
2023-05-12T12:31:08.766Z,24.62
2023-05-12T12:33:37.453Z,24.01
2023-05-12T12:36:07.168Z,23.33
2023-05-12T12:38:36.054Z,23.71
2023-05-12T12:41:05.394Z,24.16
2023-05-12T12:43:34.054Z,23.68
2023-05-12T12:46:04.407Z,24.57
2023-05-12T12:48:33.845Z,23.98
2023-05-12T12:51:03.184Z,23.86
2023-05-12T12:53:31.901Z,24.67
2023-05-12T12:56:00.858Z,24.87
2023-05-12T12:58:29.553Z,24.83
2023-05-12T13:00:58.579Z,23.76
2023-05-12T13:03:28.766Z,24.01
2023-05-12T13:05:57.716Z,23.80
2023-05-12T13:08:26.419Z,24.05
2023-05-12T13:10:56.281Z,24.29
2023-05-12T13:13:25.519Z,24.26
2023-05-12T13:15:54.648Z,23.61
2023-05-12T13:18:23.388Z,24.14
2023-05-12T13:20:54.223Z,23.58
2023-05-12T13:23:22.968Z,24.24
2023-05-12T13:25:52.131Z,24.37
2023-05-12T13:28:20.845Z,24.68
2023-05-12T13:30:49.854Z,23.97
2023-05-12T13:33:18.586Z,23.71
2023-05-12T13:35:47.974Z,24.14
2023-05-12T13:38:18.288Z,24.49
2023-05-12T13:40:47.472Z,24.71
2023-05-12T13:43:16.188Z,24.64
2023-05-12T13:45:45.298Z,24.59
2023-05-12T13:48:14.358Z,25.16
2023-05-12T13:50:43.505Z,23.75
2023-05-12T13:53:12.659Z,24.02
2023-05-12T13:55:44.560Z,24.16
2023-05-12T13:58:13.466Z,24.48
2023-05-12T14:00:42.522Z,24.48
2023-05-12T14:03:11.232Z,25.30
2023-05-12T14:05:40.467Z,25.65
2023-05-12T14:08:09.226Z,24.92
2023-05-12T14:10:38.252Z,24.62
2023-05-12T14:13:08.655Z,24.94
2023-05-12T14:15:47.996Z,24.44
2023-05-12T14:18:17.813Z,25.10
2023-05-12T14:20:47.065Z,24.68
2023-05-12T14:23:15.775Z,23.99
2023-05-12T14:25:44.781Z,24.84
2023-05-12T14:28:15.009Z,24.37
2023-05-12T14:30:45.301Z,24.06
2023-05-12T14:33:14.331Z,24.32
2023-05-12T14:35:50.284Z,24.52
2023-05-12T14:38:24.978Z,24.99
2023-05-12T14:40:54.020Z,24.83
2023-05-12T14:43:24.158Z,24.97
2023-05-12T14:45:54.694Z,24.90
2023-05-12T14:48:26.086Z,24.67
2023-05-12T14:50:55.730Z,24.78
2023-05-12T14:53:25.258Z,24.91
2023-05-12T14:55:54.244Z,25.36
2023-05-12T14:58:25.153Z,25.04
2023-05-12T15:00:54.702Z,25.16
2023-05-12T15:03:23.679Z,25.38
2023-05-12T15:06:05.600Z,25.78
2023-05-12T15:08:35.958Z,25.51
2023-05-12T15:11:05.240Z,25.61
2023-05-12T15:13:35.298Z,25.02
2023-05-12T15:16:04.853Z,25.52
2023-05-12T15:18:33.601Z,26.13
2023-05-12T15:21:02.574Z,26.27
2023-05-12T15:23:31.336Z,25.74
2023-05-12T15:26:06.904Z,25.89
2023-05-12T15:28:45.620Z,25.42
2023-05-12T15:31:14.735Z,25.41
2023-05-12T15:33:43.632Z,25.51
2023-05-12T15:36:13.520Z,26.04
2023-05-12T15:38:42.565Z,26.20
2023-05-12T15:41:11.569Z,25.60
2023-05-12T15:43:41.112Z,26.03
2023-05-12T15:46:11.937Z,25.97
2023-05-12T15:48:40.711Z,25.75
2023-05-12T15:51:09.783Z,25.83
2023-05-12T15:53:38.416Z,25.96
2023-05-12T15:56:09.083Z,25.75
2023-05-12T15:58:37.913Z,26.13
2023-05-12T16:01:06.962Z,26.58
2023-05-12T16:03:37.777Z,26.25
2023-05-12T16:06:08.801Z,25.98
2023-05-12T16:08:37.685Z,26.05
2023-05-12T16:11:06.774Z,26.17
2023-05-12T16:13:35.522Z,26.18
2023-05-12T16:16:05.281Z,26.14
2023-05-12T16:18:34.212Z,26.28
2023-05-12T16:21:05.322Z,26.19
2023-05-12T16:23:34.203Z,26.66
2023-05-12T16:26:03.243Z,26.32
2023-05-12T16:28:34.492Z,26.57
2023-05-12T16:31:04.583Z,26.47
2023-05-12T16:33:33.329Z,26.80
2023-05-12T16:36:02.211Z,27.01
2023-05-12T16:38:32.521Z,26.84
2023-05-12T16:41:01.744Z,26.34
2023-05-12T16:43:30.401Z,26.79
2023-05-12T16:46:04.248Z,26.43
2023-05-12T16:48:34.825Z,26.15
2023-05-12T16:51:06.914Z,26.60
2023-05-12T16:53:37.672Z,26.43
2023-05-12T16:56:07.408Z,26.47
2023-05-12T16:58:36.281Z,26.90
2023-05-12T17:01:05.591Z,26.86
2023-05-12T17:03:34.545Z,26.65
2023-05-12T17:06:04.092Z,26.98
2023-05-12T17:08:35.475Z,27.50
2023-05-12T17:11:06.535Z,27.53
2023-05-12T17:13:38.136Z,27.80
2023-05-12T17:16:07.966Z,27.64
2023-05-12T17:21:09.086Z,27.89
2023-05-12T17:23:38.028Z,28.10
2023-05-12T17:26:08.261Z,28.37
2023-05-12T17:28:37.347Z,28.29
2023-05-12T17:31:07.521Z,28.70
2023-05-12T17:33:36.876Z,28.31
2023-05-12T17:36:12.520Z,28.64
2023-05-12T17:38:43.929Z,28.15
2023-05-12T17:41:14.367Z,28.34
2023-05-12T17:43:43.364Z,28.64
2023-05-12T17:46:12.164Z,29.22
2023-05-12T17:48:41.186Z,28.92
2023-05-12T17:51:09.942Z,28.99
2023-05-12T17:53:38.946Z,29.70
2023-05-12T17:56:08.010Z,29.58
2023-05-12T17:58:38.567Z,29.46
2023-05-12T18:01:07.515Z,29.77
2023-05-12T18:03:36.866Z,30.02
2023-05-12T18:06:05.910Z,30.36
2023-05-12T18:08:35.132Z,30.07
2023-05-12T18:11:04.011Z,30.56
2023-05-12T18:13:32.964Z,30.35
2023-05-12T18:16:03.040Z,31.62
2023-05-12T18:18:32.503Z,34.38
2023-05-12T18:21:02.134Z,35.46
2023-05-12T18:23:31.155Z,35.83
2023-05-12T18:25:59.800Z,36.52
2023-05-12T18:28:29.077Z,35.37
2023-05-12T18:31:00.317Z,35.21
2023-05-12T18:33:35.012Z,35.37
2023-05-12T18:36:04.086Z,35.11
2023-05-12T18:38:33.975Z,35.61
2023-05-12T18:41:02.704Z,36.10
2023-05-12T18:43:31.728Z,36.15
2023-05-12T18:46:00.549Z,37.03
2023-05-12T18:48:29.585Z,37.04
2023-05-12T18:50:59.860Z,37.37
2023-05-12T18:53:29.047Z,37.92
2023-05-12T18:55:57.867Z,37.47
2023-05-12T18:58:27.160Z,37.82
2023-05-12T19:00:56.074Z,38.06
2023-05-12T19:03:25.231Z,37.99
2023-05-12T19:05:53.983Z,39.63
2023-05-12T19:08:24.406Z,39.42
2023-05-12T19:10:53.260Z,39.32
2023-05-12T19:13:22.533Z,40.24
2023-05-12T19:15:51.223Z,41.52
2023-05-12T19:18:20.270Z,41.75
2023-05-12T19:20:49.308Z,40.42
2023-05-12T19:23:18.410Z,40.12
2023-05-12T19:25:48.511Z,40.65
2023-05-12T19:28:17.498Z,40.81
2023-05-12T19:30:46.200Z,40.88
2023-05-12T19:33:17.350Z,40.80
2023-05-12T19:35:46.392Z,40.96
2023-05-12T19:38:15.569Z,41.39
2023-05-12T19:40:44.236Z,41.82
2023-05-12T19:43:14.804Z,41.64
2023-05-12T19:45:43.637Z,41.98
2023-05-12T19:48:12.869Z,42.07
2023-05-12T19:50:41.634Z,42.40
2023-05-12T19:53:10.625Z,43.38
2023-05-12T19:55:39.408Z,43.94
2023-05-12T19:58:08.943Z,44.18
2023-05-12T20:00:39.638Z,44.11
2023-05-12T20:03:09.005Z,44.34
2023-05-12T20:05:38.076Z,44.42
2023-05-12T20:08:07.886Z,44.58
2023-05-12T20:10:36.820Z,44.65
2023-05-12T20:13:05.783Z,44.78
2023-05-12T20:15:35.141Z,44.73
2023-05-12T20:18:05.952Z,45.07
2023-05-12T20:20:34.665Z,45.18
2023-05-12T20:23:04.437Z,45.02
2023-05-12T20:25:33.592Z,45.15
2023-05-12T20:28:03.070Z,44.91
2023-05-12T20:30:31.764Z,45.13
2023-05-12T20:33:00.733Z,45.10
2023-05-12T20:35:30.907Z,45.19
2023-05-12T20:37:59.950Z,45.56
2023-05-12T20:40:28.776Z,46.02
2023-05-12T20:42:57.756Z,46.25
2023-05-12T20:45:26.754Z,46.65
2023-05-12T20:47:55.866Z,46.91
2023-05-12T20:50:24.832Z,46.99
2023-05-12T20:52:55.121Z,46.63
2023-05-12T20:55:25.495Z,47.11
2023-05-12T20:57:55.325Z,47.52
2023-05-12T21:00:24.123Z,48.24
2023-05-12T21:02:53.800Z,48.44
2023-05-12T21:05:22.862Z,48.82
2023-05-12T21:07:51.975Z,48.91
2023-05-12T21:10:22.752Z,49.04
2023-05-12T21:12:52.099Z,49.63
2023-05-12T21:15:20.958Z,49.34
2023-05-12T21:17:49.921Z,49.48
2023-05-12T21:20:18.964Z,49.53
2023-05-12T21:22:47.930Z,50.05
2023-05-12T21:25:16.710Z,49.72
2023-05-12T21:27:47.487Z,50.11
2023-05-12T21:30:16.438Z,49.85
2023-05-12T21:32:45.475Z,49.06
2023-05-12T21:35:14.271Z,48.94
2023-05-12T21:38:01.407Z,48.79
2023-05-12T21:40:30.200Z,49.08
2023-05-12T21:43:00.950Z,49.04
2023-05-12T21:45:30.059Z,49.20
2023-05-12T21:47:59.075Z,49.54
2023-05-12T21:50:27.958Z,49.28
2023-05-12T21:52:56.897Z,49.42
2023-05-12T21:55:26.407Z,49.54
2023-05-12T21:57:55.375Z,49.95
2023-05-12T22:00:26.328Z,50.43
2023-05-12T22:02:55.464Z,50.45
2023-05-12T22:05:24.396Z,50.31
2023-05-12T22:07:53.451Z,50.45
2023-05-12T22:10:22.331Z,50.39
2023-05-12T22:12:51.591Z,50.67
2023-05-12T22:15:20.353Z,50.99
2023-05-12T22:17:50.615Z,51.13
2023-05-12T22:20:19.656Z,51.51
2023-05-12T22:22:48.772Z,51.64
2023-05-12T22:25:17.477Z,51.56
2023-05-12T22:27:46.533Z,51.57
2023-05-12T22:30:15.940Z,51.83
2023-05-12T22:32:45.385Z,51.78
2023-05-12T22:35:16.353Z,51.71
2023-05-12T22:37:45.393Z,52.06
2023-05-12T22:40:14.387Z,52.47
2023-05-12T22:42:43.643Z,52.86
2023-05-12T22:45:12.622Z,52.77
2023-05-12T22:47:41.588Z,52.18
2023-05-12T22:50:11.349Z,53.20
2023-05-12T22:52:41.713Z,52.79
2023-05-12T22:55:11.584Z,53.42
2023-05-12T22:57:41.073Z,53.05
2023-05-12T23:00:11.650Z,53.64
2023-05-12T23:02:40.717Z,53.46
2023-05-12T23:05:10.688Z,53.37
2023-05-12T23:07:40.997Z,53.35
2023-05-12T23:10:10.691Z,53.17
2023-05-12T23:12:40.285Z,54.00
2023-05-12T23:15:10.310Z,54.49
2023-05-12T23:17:39.360Z,54.14
2023-05-12T23:20:10.023Z,54.93
2023-05-12T23:22:39.051Z,54.20
2023-05-12T23:25:10.659Z,54.22
2023-05-12T23:27:39.790Z,54.09
2023-05-12T23:30:09.734Z,53.09
2023-05-12T23:32:38.958Z,53.97
2023-05-12T23:35:09.557Z,54.09
2023-05-12T23:37:38.551Z,54.76
2023-05-12T23:40:10.646Z,54.29
2023-05-12T23:42:39.566Z,54.43
2023-05-12T23:45:09.637Z,54.50
2023-05-12T23:47:38.718Z,54.08
2023-05-12T23:50:09.365Z,54.02
2023-05-12T23:52:38.564Z,54.71
2023-05-12T23:55:10.054Z,55.19
2023-05-12T23:57:40.131Z,54.64
